Pensacola, FL

2:10 AM CDT on May 26, 2015 (GMT -0500)
Saufley Field | | Change Station
CLOSE
Current Station
Personal Weather Station
Location: Pensacola, FL
Elevation: 65 ft
Nearby Weather Stations

Elev 65 ft 30.46 °N, 87.34 °W | Updated 4 minutes ago

Mostly Cloudy
Mostly Cloudy
76.2 °F
Feels Like 76 °F
N
0.0
Wind Variable Wind from NW
Gusts 0.0 mph

Today
High -- | Low -- °F
--% Chance of Precip.
Yesterday
High -- | Low -- °F
Precip. -- in
5:49 AM 7:43 PM
First Quarter, 55% visible
Pressure 30.09 in
Visibility 9.0 miles
Clouds Mostly Cloudy 1500 ft
Mostly Cloudy 2100 ft
Heat Index 76 °F
Dew Point 75 °F
Humidity 96%
Rainfall 0.04 in
Snow Depth Not available.
UV 0 out of 12
Pollen 4.50 out of 12
Air Quality Not available.
Flu Activity Sporadic
METAR KNPA 260656Z AUTO 14011KT 9SM BKN015 BKN021 26/23 A3009 RMK AO2 SLP190 T02610233 $

More Conditions Fewer Conditions

Pressure 30.09 in
Visibility 9.0 miles
Clouds Mostly Cloudy 1500 ft
Mostly Cloudy 2100 ft
Heat Index 76 °F
Dew Point 75 °F
Humidity 96%
Rainfall 0.04 in
Snow Depth Not available.
UV 0 out of 12
Pollen 4.50 out of 12
Air Quality Not available.
Flu Activity Sporadic
METAR KNPA 260656Z AUTO 14011KT 9SM BKN015 BKN021 26/23 A3009 RMK AO2 SLP190 T02610233 $

More Conditions Fewer Conditions

10-Day Weather Forecast

Almanac

Astronomy

May. 26, 2015 Rise Set
Actual Time
Civil Twilight
Nautical Twilight
Astronomical Twilight
Moon
Length of Visible Light
Length of Day
Tomorrow will be .
, % of the Moon is Illuminated

Today's Extremes

State Highs State Lows

Community

WunderPhotos

Upload Photos

1,824,299 photos uploaded!

WunderBlogs® & News

Nearby

Air Quality

  Air Quality AQ Index Pollutant
Not available.

Snow Depth

Station Depth Elevation

Earthquake Activity

City Distance Mag. Time & Date
Minimum magnitude displayed is 2.5.

Coastal Water Temperatures

Place Temperature

Stations

Nearby Weather Stations

Station Location Temp. Windchill Dew Point Humidity Wind Precip. Elev Updated Type